createdAt,value
2018-03-24T00:01:07.639Z,7.40
2018-03-24T00:03:35.094Z,7.40
2018-03-24T00:06:02.563Z,7.40
2018-03-24T00:08:30.020Z,7.40
2018-03-24T00:10:57.500Z,7.40
2018-03-24T00:13:24.960Z,7.40
2018-03-24T00:15:52.440Z,7.30
2018-03-24T00:18:19.901Z,7.40
2018-03-24T00:20:47.376Z,7.30
2018-03-24T00:23:14.839Z,7.30
2018-03-24T00:25:42.323Z,7.30
2018-03-24T00:28:09.779Z,7.30
2018-03-24T00:30:37.263Z,7.30
2018-03-24T00:33:04.716Z,7.30
2018-03-24T00:35:32.180Z,7.30
2018-03-24T00:37:59.653Z,7.30
2018-03-24T00:40:27.114Z,7.30
2018-03-24T00:42:54.581Z,7.30
2018-03-24T00:45:22.049Z,7.20
2018-03-24T00:47:49.534Z,7.20
2018-03-24T00:50:17.027Z,7.20
2018-03-24T00:52:44.496Z,7.20
2018-03-24T00:55:11.956Z,7.20
2018-03-24T00:57:39.415Z,7.10
2018-03-24T01:00:06.875Z,7.10
2018-03-24T01:02:35.131Z,7.10
2018-03-24T01:05:04.101Z,7.10
2018-03-24T01:07:31.572Z,7.10
2018-03-24T01:09:59.035Z,7.10
2018-03-24T01:12:26.525Z,7.00
2018-03-24T01:14:53.983Z,7.00
2018-03-24T01:17:21.471Z,7.00
2018-03-24T01:19:48.939Z,7.00
2018-03-24T01:22:16.411Z,7.00
2018-03-24T01:24:43.882Z,7.00
2018-03-24T01:27:11.368Z,7.00
2018-03-24T01:29:39.615Z,7.00
2018-03-24T01:32:07.076Z,7.00
2018-03-24T01:34:34.557Z,7.00
2018-03-24T01:37:02.019Z,7.00
2018-03-24T01:39:29.509Z,7.00
2018-03-24T01:41:56.967Z,6.90
2018-03-24T01:44:24.446Z,6.90
2018-03-24T01:46:51.900Z,6.90
2018-03-24T01:49:19.399Z,6.90
2018-03-24T01:51:47.636Z,6.90
2018-03-24T01:54:15.110Z,6.90
2018-03-24T01:56:42.584Z,6.90
2018-03-24T01:59:10.053Z,6.90
2018-03-24T02:01:37.513Z,6.90
2018-03-24T02:04:04.971Z,6.90
2018-03-24T02:06:32.458Z,6.80
2018-03-24T02:08:59.921Z,6.80
2018-03-24T02:11:27.410Z,6.80
2018-03-24T02:13:55.688Z,6.80
2018-03-24T02:16:23.163Z,6.80
2018-03-24T02:18:50.628Z,6.80
2018-03-24T02:21:28.004Z,6.80
2018-03-24T02:23:56.288Z,6.70
2018-03-24T02:26:23.756Z,6.70
2018-03-24T02:28:51.211Z,6.70
2018-03-24T02:31:18.691Z,6.70
2018-03-24T02:33:46.163Z,6.70
2018-03-24T02:36:13.642Z,6.70
2018-03-24T02:38:41.107Z,6.70
2018-03-24T02:41:08.570Z,6.70
2018-03-24T02:43:36.817Z,6.70
2018-03-24T02:46:04.272Z,6.70
2018-03-24T02:48:31.755Z,6.70
2018-03-24T02:50:59.223Z,6.70
2018-03-24T02:53:26.692Z,6.70
2018-03-24T02:55:54.175Z,6.70
2018-03-24T02:58:21.701Z,6.70
2018-03-24T03:00:49.955Z,6.60
2018-03-24T03:03:17.444Z,6.60
2018-03-24T03:05:44.916Z,6.70
2018-03-24T03:08:12.401Z,6.70
2018-03-24T03:10:39.864Z,6.60
2018-03-24T03:13:07.394Z,6.60
2018-03-24T03:15:35.570Z,6.60
2018-03-24T03:18:03.052Z,6.50
2018-03-24T03:20:30.519Z,6.50
2018-03-24T03:22:58.002Z,6.50
2018-03-24T03:25:25.451Z,6.50
2018-03-24T03:27:52.991Z,6.50
2018-03-24T03:30:26.209Z,6.50
2018-03-24T03:32:53.688Z,6.50
2018-03-24T03:35:21.152Z,6.40
2018-03-24T03:37:48.624Z,6.40
2018-03-24T03:40:16.100Z,6.40
2018-03-24T03:42:43.575Z,6.40
2018-03-24T03:45:11.032Z,6.40
2018-03-24T03:47:38.488Z,6.40
2018-03-24T03:50:05.956Z,6.30
2018-03-24T03:52:34.197Z,6.30
2018-03-24T03:55:01.671Z,6.30
2018-03-24T03:57:29.147Z,6.30
2018-03-24T03:59:56.616Z,6.20
2018-03-24T04:02:24.079Z,6.20
2018-03-24T04:04:51.560Z,6.20
2018-03-24T04:07:19.019Z,6.20
2018-03-24T04:09:46.496Z,6.10
2018-03-24T04:12:13.956Z,6.10
2018-03-24T04:14:41.437Z,6.00
2018-03-24T04:17:08.901Z,6.00
2018-03-24T04:19:37.139Z,5.90
2018-03-24T04:22:04.601Z,5.90
2018-03-24T04:24:32.108Z,5.90
2018-03-24T04:26:59.573Z,5.80
2018-03-24T04:29:27.057Z,5.80
2018-03-24T04:31:54.528Z,5.70
2018-03-24T04:34:21.988Z,5.70
2018-03-24T04:36:49.465Z,5.60
2018-03-24T04:39:16.936Z,5.60
2018-03-24T04:41:44.408Z,5.60
2018-03-24T04:44:12.628Z,5.50
2018-03-24T04:46:40.091Z,5.50
2018-03-24T04:49:07.571Z,5.50
2018-03-24T04:51:35.049Z,5.50
2018-03-24T04:54:02.540Z,5.40
2018-03-24T04:56:30.015Z,5.40
2018-03-24T04:58:57.505Z,5.40
2018-03-24T05:01:25.774Z,5.40
2018-03-24T05:03:53.242Z,5.30
2018-03-24T05:06:20.740Z,5.30
2018-03-24T05:08:48.216Z,5.30
2018-03-24T05:11:15.706Z,5.20
2018-03-24T05:13:43.180Z,5.20
2018-03-24T05:16:11.412Z,5.10
2018-03-24T05:18:38.896Z,5.10
2018-03-24T05:21:06.412Z,5.10
2018-03-24T05:23:33.878Z,5.10
2018-03-24T05:26:01.374Z,5.00
2018-03-24T05:28:29.611Z,5.00
2018-03-24T05:30:57.074Z,5.00
2018-03-24T05:33:24.533Z,5.00
2018-03-24T05:35:52.018Z,5.00
2018-03-24T05:38:19.498Z,5.00
2018-03-24T05:40:47.191Z,5.00
2018-03-24T05:43:14.660Z,4.90
2018-03-24T05:45:42.124Z,4.90
2018-03-24T05:48:09.588Z,4.90
2018-03-24T05:50:37.054Z,4.90
2018-03-24T05:53:04.544Z,4.90
2018-03-24T05:55:32.000Z,4.90
2018-03-24T05:57:59.483Z,4.80
2018-03-24T06:00:26.951Z,4.80
2018-03-24T06:02:54.433Z,4.80
2018-03-24T06:05:21.943Z,4.80
2018-03-24T06:07:49.384Z,4.80
2018-03-24T06:10:17.602Z,4.80
2018-03-24T06:12:45.077Z,4.80
2018-03-24T06:15:12.532Z,4.80
2018-03-24T06:17:39.996Z,4.80
2018-03-24T06:20:07.455Z,4.80
2018-03-24T06:22:34.939Z,4.80
2018-03-24T06:25:02.399Z,4.80
2018-03-24T06:27:29.877Z,4.80
2018-03-24T06:29:57.343Z,4.80
2018-03-24T06:32:24.832Z,4.80
2018-03-24T06:34:52.304Z,4.90
2018-03-24T06:37:20.679Z,4.90
2018-03-24T06:39:48.143Z,4.90
2018-03-24T06:42:16.375Z,5.00
2018-03-24T06:44:43.858Z,5.00
2018-03-24T06:47:11.324Z,5.10
2018-03-24T06:49:38.796Z,5.10
2018-03-24T06:52:06.253Z,5.10
2018-03-24T06:54:33.731Z,5.20
2018-03-24T06:57:01.196Z,5.30
2018-03-24T06:59:28.673Z,5.40
2018-03-24T07:01:56.138Z,5.40
2018-03-24T07:04:23.611Z,5.50
2018-03-24T07:06:51.073Z,5.60
2018-03-24T07:09:18.555Z,5.60
2018-03-24T07:11:46.804Z,5.70
2018-03-24T07:14:14.283Z,5.70
2018-03-24T07:16:41.754Z,5.70
2018-03-24T07:19:09.240Z,5.80
2018-03-24T07:21:36.738Z,5.80
2018-03-24T07:24:04.216Z,5.90
2018-03-24T07:26:32.440Z,6.00
2018-03-24T07:28:59.951Z,6.00
2018-03-24T07:31:27.404Z,6.00
2018-03-24T07:33:54.896Z,6.10
2018-03-24T07:36:22.347Z,6.20
2018-03-24T07:38:49.803Z,6.20
2018-03-24T07:41:17.274Z,6.30
2018-03-24T07:43:44.732Z,6.30
2018-03-24T07:46:12.208Z,6.40
2018-03-24T07:48:39.673Z,6.40
2018-03-24T07:51:07.151Z,6.50
2018-03-24T07:53:35.389Z,6.70
2018-03-24T07:56:02.854Z,6.60
2018-03-24T07:58:30.349Z,6.80
2018-03-24T08:00:57.812Z,6.80
2018-03-24T08:03:25.267Z,6.80
2018-03-24T08:05:52.731Z,6.90
2018-03-24T08:08:20.187Z,7.00
2018-03-24T08:10:47.660Z,7.00
2018-03-24T08:13:15.150Z,7.10
2018-03-24T08:15:42.639Z,7.10
2018-03-24T08:18:10.886Z,7.20
2018-03-24T08:20:38.372Z,7.20
2018-03-24T08:23:05.859Z,7.30
2018-03-24T08:25:33.316Z,7.40
2018-03-24T08:28:00.789Z,7.40
2018-03-24T08:30:28.306Z,7.50
2018-03-24T08:32:55.736Z,7.50
2018-03-24T08:37:57.156Z,7.60
2018-03-24T08:40:24.611Z,7.70
2018-03-24T08:42:52.090Z,7.80
2018-03-24T08:45:19.551Z,7.90
2018-03-24T08:47:47.028Z,7.90
2018-03-24T08:50:14.503Z,8.00
2018-03-24T08:52:41.975Z,8.00
2018-03-24T08:55:09.467Z,8.10
2018-03-24T08:57:36.944Z,8.20
2018-03-24T09:00:04.405Z,8.30
2018-03-24T09:02:31.875Z,8.40
2018-03-24T09:04:59.511Z,8.40
2018-03-24T09:07:27.086Z,8.50
2018-03-24T09:09:54.513Z,8.60
2018-03-24T09:12:21.980Z,8.60
2018-03-24T09:14:49.488Z,8.60
2018-03-24T09:17:16.970Z,8.60
2018-03-24T09:19:44.447Z,8.70
2018-03-24T09:22:11.982Z,8.80
2018-03-24T09:24:39.456Z,8.80
2018-03-24T09:27:06.919Z,8.90
2018-03-24T09:29:34.386Z,8.90
2018-03-24T09:32:01.935Z,9.00
2018-03-24T09:34:29.488Z,9.00
2018-03-24T09:36:56.963Z,9.10
2018-03-24T09:39:24.440Z,9.10
2018-03-24T09:41:51.896Z,9.20
2018-03-24T09:44:19.388Z,9.30
2018-03-24T09:46:46.885Z,9.30
2018-03-24T09:49:14.365Z,9.40
2018-03-24T09:51:41.828Z,9.50
2018-03-24T09:54:09.313Z,9.60
2018-03-24T09:56:36.783Z,9.60
2018-03-24T09:59:04.249Z,9.70
2018-03-24T10:01:31.763Z,9.70
2018-03-24T10:03:59.244Z,9.80
2018-03-24T10:06:26.707Z,9.80
2018-03-24T10:08:54.179Z,9.80
2018-03-24T10:11:21.635Z,9.90
2018-03-24T10:13:49.097Z,9.90
2018-03-24T10:16:16.571Z,9.90
2018-03-24T10:18:44.038Z,9.90
2018-03-24T10:21:21.442Z,10.00
2018-03-24T10:23:50.550Z,10.00
2018-03-24T10:26:18.192Z,10.00
2018-03-24T10:28:45.668Z,10.00
2018-03-24T10:31:13.198Z,10.00
2018-03-24T10:33:46.263Z,10.10
2018-03-24T10:36:13.745Z,10.30
2018-03-24T10:38:41.261Z,10.30
2018-03-24T10:41:08.735Z,10.50
2018-03-24T10:43:39.119Z,10.50
2018-03-24T10:46:06.624Z,10.60
2018-03-24T10:48:34.071Z,10.60
2018-03-24T10:51:01.570Z,10.70
2018-03-24T10:53:29.041Z,10.60
2018-03-24T10:55:57.289Z,10.50
2018-03-24T10:58:24.747Z,10.50
2018-03-24T11:00:57.858Z,10.40
2018-03-24T11:03:25.355Z,10.30
2018-03-24T11:05:52.817Z,10.30
2018-03-24T11:08:20.291Z,10.30
2018-03-24T11:10:47.819Z,10.30
2018-03-24T11:13:15.289Z,10.30
2018-03-24T11:15:42.747Z,10.40
2018-03-24T11:18:10.380Z,10.50
2018-03-24T11:20:38.601Z,10.60
2018-03-24T11:23:06.066Z,10.60
2018-03-24T11:25:33.534Z,10.70
2018-03-24T11:28:01.002Z,10.80
2018-03-24T11:30:28.455Z,10.90
2018-03-24T11:32:55.965Z,10.90
2018-03-24T11:35:23.432Z,11.00
2018-03-24T11:37:50.924Z,11.10
2018-03-24T11:40:18.388Z,11.10
2018-03-24T11:42:45.867Z,11.20
2018-03-24T11:45:14.112Z,11.30
2018-03-24T11:47:41.590Z,11.30
2018-03-24T11:50:09.061Z,11.40
2018-03-24T11:52:36.551Z,11.40
2018-03-24T11:55:04.013Z,11.40
2018-03-24T11:57:31.472Z,11.50
2018-03-24T12:00:04.673Z,11.50
2018-03-24T12:02:32.131Z,11.50
2018-03-24T12:04:59.611Z,11.50
2018-03-24T12:07:27.079Z,11.50
2018-03-24T12:09:54.562Z,11.50
2018-03-24T12:12:22.032Z,11.40
2018-03-24T12:14:49.543Z,11.40
2018-03-24T12:17:17.008Z,11.30
2018-03-24T12:19:45.253Z,11.30
2018-03-24T12:22:12.760Z,11.30
2018-03-24T12:24:40.216Z,11.40
2018-03-24T12:27:07.692Z,11.40
2018-03-24T12:29:35.171Z,11.50
2018-03-24T12:32:02.654Z,11.50
2018-03-24T12:34:30.131Z,11.50
2018-03-24T12:36:58.376Z,11.70
2018-03-24T12:39:25.852Z,11.70
2018-03-24T12:41:53.341Z,11.80
2018-03-24T12:44:20.822Z,11.80
2018-03-24T12:46:48.295Z,11.80
2018-03-24T12:49:15.751Z,11.70
2018-03-24T12:51:43.241Z,11.80
2018-03-24T12:54:11.468Z,11.90
2018-03-24T12:56:38.936Z,11.90
2018-03-24T12:59:06.399Z,12.00
2018-03-24T13:01:34.647Z,12.20
2018-03-24T13:04:02.120Z,12.10
2018-03-24T13:06:29.591Z,12.20
2018-03-24T13:08:57.072Z,12.20
2018-03-24T13:11:24.559Z,12.20
2018-03-24T13:13:52.169Z,12.20
2018-03-24T13:16:19.657Z,12.20
2018-03-24T13:18:47.892Z,12.30
2018-03-24T13:21:15.359Z,12.30
2018-03-24T13:23:42.824Z,12.40
2018-03-24T13:26:10.312Z,12.50
2018-03-24T13:28:37.792Z,12.40
2018-03-24T13:31:05.267Z,12.50
2018-03-24T13:33:32.744Z,12.60
2018-03-24T13:36:00.227Z,12.70
2018-03-24T13:38:28.456Z,12.70
2018-03-24T13:40:55.936Z,12.70
2018-03-24T13:43:23.399Z,12.60
2018-03-24T13:45:50.861Z,12.40
2018-03-24T13:48:18.335Z,12.30
2018-03-24T13:50:45.824Z,12.20
2018-03-24T13:53:14.119Z,12.10
2018-03-24T13:55:41.608Z,12.10
2018-03-24T13:58:09.080Z,12.10
2018-03-24T14:00:36.554Z,12.10
2018-03-24T14:03:04.034Z,12.10
2018-03-24T14:05:31.515Z,12.10
2018-03-24T14:07:58.996Z,12.10
2018-03-24T14:10:26.469Z,12.10
2018-03-24T14:12:54.704Z,12.10
2018-03-24T14:15:22.178Z,12.10
2018-03-24T14:17:49.639Z,12.20
2018-03-24T14:20:17.152Z,12.30
2018-03-24T14:22:44.632Z,12.40
2018-03-24T14:25:12.088Z,12.50
2018-03-24T14:27:39.563Z,12.50
2018-03-24T14:30:07.028Z,12.40
2018-03-24T14:32:34.523Z,12.30
2018-03-24T14:35:01.999Z,12.20
2018-03-24T14:37:29.499Z,12.10
2018-03-24T14:39:56.965Z,12.00
2018-03-24T14:42:24.423Z,12.00
2018-03-24T14:44:51.907Z,12.20
2018-03-24T14:47:19.372Z,12.60
2018-03-24T14:49:46.864Z,12.90
2018-03-24T14:52:14.319Z,13.20
2018-03-24T14:54:41.783Z,13.40
2018-03-24T14:57:09.257Z,13.60
2018-03-24T14:59:36.724Z,13.80
2018-03-24T15:02:04.192Z,14.00
2018-03-24T15:04:32.443Z,14.10
2018-03-24T15:06:59.904Z,14.10
2018-03-24T15:09:27.372Z,14.10
2018-03-24T15:11:54.859Z,14.10
2018-03-24T15:14:22.336Z,14.00
2018-03-24T15:16:49.813Z,14.00
2018-03-24T15:19:17.278Z,14.10
2018-03-24T15:21:44.760Z,14.10
2018-03-24T15:24:13.007Z,14.10
2018-03-24T15:26:40.472Z,14.10
2018-03-24T15:29:19.700Z,14.00
2018-03-24T15:31:59.044Z,13.90
2018-03-24T15:34:38.384Z,13.90
2018-03-24T15:37:06.632Z,13.70
2018-03-24T15:39:34.100Z,13.60
2018-03-24T15:42:01.566Z,13.60
2018-03-24T15:44:29.036Z,13.40
2018-03-24T15:46:57.277Z,13.40
2018-03-24T15:49:24.764Z,13.40
2018-03-24T15:51:52.228Z,13.40
2018-03-24T15:54:19.743Z,13.40
2018-03-24T15:56:47.184Z,13.40
2018-03-24T15:59:14.644Z,13.30
2018-03-24T16:01:42.140Z,13.20
2018-03-24T16:04:09.605Z,13.00
2018-03-24T16:06:37.078Z,12.90
2018-03-24T16:09:05.315Z,12.70
2018-03-24T16:11:32.799Z,12.70
2018-03-24T16:14:00.281Z,12.60
2018-03-24T16:16:27.768Z,12.60
2018-03-24T16:18:55.249Z,12.50
2018-03-24T16:21:22.785Z,12.40
2018-03-24T16:23:50.250Z,12.40
2018-03-24T16:26:17.736Z,12.30
2018-03-24T16:28:46.000Z,12.20
2018-03-24T16:31:13.480Z,12.20
2018-03-24T16:33:40.954Z,12.20
2018-03-24T16:36:08.452Z,12.20
2018-03-24T16:38:35.925Z,12.10
2018-03-24T16:41:03.388Z,12.10
2018-03-24T16:43:30.867Z,12.10
2018-03-24T16:45:59.099Z,12.00
2018-03-24T16:48:26.580Z,12.00
2018-03-24T16:50:54.066Z,12.00
2018-03-24T16:53:22.328Z,11.90
2018-03-24T16:55:49.830Z,11.90
2018-03-24T16:58:17.339Z,11.90
2018-03-24T17:00:44.811Z,11.90
2018-03-24T17:03:13.048Z,11.80
2018-03-24T17:05:40.527Z,11.80
2018-03-24T17:08:07.999Z,11.80
2018-03-24T17:10:35.474Z,11.70
2018-03-24T17:13:02.956Z,11.70
2018-03-24T17:15:30.451Z,11.60
2018-03-24T17:17:57.928Z,11.60
2018-03-24T17:20:25.418Z,11.60
2018-03-24T17:22:52.899Z,11.50
2018-03-24T17:25:20.376Z,11.50
2018-03-24T17:27:47.848Z,11.50
2018-03-24T17:30:16.107Z,11.30
2018-03-24T17:32:43.575Z,11.30
2018-03-24T17:35:11.044Z,11.20
2018-03-24T17:37:38.514Z,11.20
2018-03-24T17:40:05.988Z,11.10
2018-03-24T17:42:33.479Z,11.10
2018-03-24T17:45:00.968Z,11.00
2018-03-24T17:47:29.207Z,10.90
2018-03-24T17:49:56.692Z,10.90
2018-03-24T17:52:24.156Z,10.90
2018-03-24T17:54:51.628Z,10.80
2018-03-24T17:57:19.096Z,10.70
2018-03-24T17:59:46.577Z,10.70
2018-03-24T18:02:14.046Z,10.60
2018-03-24T18:04:41.535Z,10.60
2018-03-24T18:07:09.736Z,10.50
2018-03-24T18:09:38.239Z,10.50
2018-03-24T18:12:05.817Z,10.40
2018-03-24T18:14:34.309Z,10.40
2018-03-24T18:17:01.788Z,10.30
2018-03-24T18:19:29.314Z,10.30
2018-03-24T18:21:56.827Z,10.20
2018-03-24T18:24:25.787Z,10.10
2018-03-24T18:26:53.380Z,10.10
2018-03-24T18:29:20.941Z,10.10
2018-03-24T18:31:48.540Z,10.00
2018-03-24T18:34:16.053Z,10.00
2018-03-24T18:36:43.630Z,9.90
2018-03-24T18:39:11.213Z,9.90
2018-03-24T18:41:38.710Z,9.80
2018-03-24T18:44:06.261Z,9.70
2018-03-24T18:46:33.773Z,9.60
2018-03-24T18:49:01.287Z,9.50
2018-03-24T18:51:28.925Z,9.40
2018-03-24T18:53:56.481Z,9.30
2018-03-24T18:56:24.069Z,9.30
2018-03-24T18:58:51.724Z,9.30
2018-03-24T19:01:19.246Z,9.20
2018-03-24T19:03:46.752Z,9.20
2018-03-24T19:06:14.308Z,9.20
2018-03-24T19:08:42.649Z,9.00
2018-03-24T19:11:10.195Z,9.00
2018-03-24T19:13:37.750Z,9.00
2018-03-24T19:16:05.248Z,8.90
2018-03-24T19:18:32.846Z,8.80
2018-03-24T19:21:00.426Z,8.80
2018-03-24T19:23:28.732Z,8.70
2018-03-24T19:25:56.273Z,8.60
2018-03-24T19:28:23.810Z,8.50
2018-03-24T19:30:51.352Z,8.50
2018-03-24T19:33:18.880Z,8.50
2018-03-24T19:35:46.400Z,8.50
2018-03-24T19:38:13.979Z,8.40
2018-03-24T19:40:42.288Z,8.40
2018-03-24T19:43:09.835Z,8.40
2018-03-24T19:45:37.353Z,8.30
2018-03-24T19:48:04.965Z,8.30
2018-03-24T19:50:32.670Z,8.20
2018-03-24T19:53:00.237Z,8.20
2018-03-24T19:55:27.748Z,8.20
2018-03-24T19:57:55.259Z,8.10
2018-03-24T20:00:22.824Z,8.10
2018-03-24T20:02:50.313Z,8.10
2018-03-24T20:05:17.840Z,8.00
2018-03-24T20:07:45.407Z,7.90
2018-03-24T20:10:12.943Z,7.90
2018-03-24T20:12:40.481Z,7.90
2018-03-24T20:15:08.091Z,7.80
2018-03-24T20:17:35.621Z,7.80
2018-03-24T20:20:04.030Z,7.70
2018-03-24T20:22:31.568Z,7.70
2018-03-24T20:24:59.123Z,7.60
2018-03-24T20:27:26.710Z,7.60
2018-03-24T20:29:54.250Z,7.60
2018-03-24T20:32:21.751Z,7.50
2018-03-24T20:34:50.180Z,7.40
2018-03-24T20:37:17.692Z,7.40
2018-03-24T20:39:45.248Z,7.40
2018-03-24T20:42:12.827Z,7.30
2018-03-24T20:44:40.368Z,7.30
2018-03-24T20:47:07.871Z,7.20
2018-03-24T20:49:35.491Z,7.20
2018-03-24T20:52:02.983Z,7.20
2018-03-24T20:54:30.591Z,7.20
2018-03-24T20:56:58.115Z,7.10
2018-03-24T20:59:25.692Z,7.10
2018-03-24T21:01:53.253Z,7.10
2018-03-24T21:04:20.751Z,7.00
2018-03-24T21:06:48.293Z,7.00
2018-03-24T21:09:15.906Z,6.90
2018-03-24T21:11:43.539Z,6.90
2018-03-24T21:14:11.080Z,6.80
2018-03-24T21:16:39.396Z,6.70
2018-03-24T21:19:06.909Z,6.70
2018-03-24T21:21:35.254Z,6.70
2018-03-24T21:24:02.811Z,6.70
2018-03-24T21:26:30.416Z,6.70
2018-03-24T21:28:57.948Z,6.70
2018-03-24T21:31:25.553Z,6.60
2018-03-24T21:33:53.104Z,6.60
2018-03-24T21:36:20.620Z,6.50
2018-03-24T21:38:48.227Z,6.40
2018-03-24T21:41:15.788Z,6.40
2018-03-24T21:43:43.294Z,6.40
2018-03-24T21:46:11.534Z,6.30
2018-03-24T21:48:39.178Z,6.30
2018-03-24T21:51:07.479Z,6.30
2018-03-24T21:53:35.090Z,6.20
2018-03-24T21:56:02.581Z,6.30
2018-03-24T21:58:30.100Z,6.20
2018-03-24T22:00:57.641Z,6.20
2018-03-24T22:03:25.238Z,6.20
2018-03-24T22:05:52.848Z,6.10
2018-03-24T22:08:20.408Z,6.00
2018-03-24T22:10:48.023Z,6.00
2018-03-24T22:13:15.583Z,6.00
2018-03-24T22:15:43.148Z,5.90
2018-03-24T22:18:10.698Z,5.90
2018-03-24T22:20:38.221Z,5.90
2018-03-24T22:23:05.816Z,5.90
2018-03-24T22:25:34.150Z,5.80
2018-03-24T22:28:01.676Z,5.80
2018-03-24T22:30:29.185Z,5.80
2018-03-24T22:32:56.712Z,5.70
2018-03-24T22:35:24.218Z,5.70
2018-03-24T22:37:51.871Z,5.60
2018-03-24T22:40:19.402Z,5.60
2018-03-24T22:42:47.009Z,5.60
2018-03-24T22:45:14.526Z,5.60
2018-03-24T22:47:42.094Z,5.50
2018-03-24T22:50:09.603Z,5.50
2018-03-24T22:52:37.103Z,5.50
2018-03-24T22:55:04.678Z,5.40
2018-03-24T22:57:32.177Z,5.40
2018-03-24T22:59:59.762Z,5.40
2018-03-24T23:02:27.287Z,5.40
2018-03-24T23:04:54.906Z,5.40
2018-03-24T23:07:22.552Z,5.40
2018-03-24T23:09:50.092Z,5.40
2018-03-24T23:12:17.606Z,5.30
2018-03-24T23:14:45.160Z,5.30
2018-03-24T23:17:12.660Z,5.20
2018-03-24T23:19:40.330Z,5.20
2018-03-24T23:22:07.910Z,5.10
2018-03-24T23:24:35.493Z,5.10
2018-03-24T23:27:03.816Z,5.00
2018-03-24T23:29:31.374Z,5.00
2018-03-24T23:31:58.909Z,4.90
2018-03-24T23:34:26.512Z,4.90
2018-03-24T23:36:54.069Z,4.90
2018-03-24T23:39:21.704Z,4.90
2018-03-24T23:41:49.230Z,4.80
2018-03-24T23:44:16.748Z,4.80
2018-03-24T23:46:44.362Z,4.80
2018-03-24T23:49:11.919Z,4.80
2018-03-24T23:51:40.291Z,4.70
2018-03-24T23:54:07.755Z,4.70
2018-03-24T23:56:35.309Z,4.70
2018-03-24T23:59:02.870Z,4.60
